Time;durP1;ratioP1;P1;durP2;ratioP2;P2;SDS_P1;SDS_P2;PMS_P1;PMS_P2;Temp;Humidity;BMP_temperature;BMP_pressure;BME280_temperature;BME280_humidity;BME280_pressure;Samples;Min_cycle;Max_cycle;Signal;HPM_P1;HPM_P2
2023/10/27 00:00:44;;;;;;;0.60;0.60;;;9.50;99.90;;;;;;5075651;28;20043;-70
2023/10/27 00:03:10;;;;;;;1.38;1.02;;;9.50;99.90;;;;;;5075515;28;20419;-70
2023/10/27 00:05:35;;;;;;;1.02;1.00;;;9.50;99.90;;;;;;5074245;28;20522;-70
2023/10/27 00:08:01;;;;;;;0.70;0.70;;;9.40;99.90;;;;;;5075118;28;20048;-70
2023/10/27 00:10:28;;;;;;;0.63;0.63;;;9.80;99.90;;;;;;5075702;28;20056;-70
2023/10/27 00:12:53;;;;;;;1.15;1.08;;;9.40;99.90;;;;;;5075246;28;20119;-70
2023/10/27 00:15:19;;;;;;;0.90;0.90;;;9.40;99.90;;;;;;5075230;28;20128;-70
2023/10/27 00:17:45;;;;;;;0.70;0.70;;;9.30;99.90;;;;;;5075141;28;20032;-70
2023/10/27 00:20:11;;;;;;;0.80;0.80;;;9.30;99.90;;;;;;5075233;28;20489;-70
2023/10/27 00:22:37;;;;;;;1.30;1.20;;;9.30;99.90;;;;;;5075024;28;20055;-70
2023/10/27 00:25:03;;;;;;;0.90;0.90;;;9.20;99.90;;;;;;5074654;28;20041;-70
2023/10/27 00:27:28;;;;;;;1.00;1.00;;;9.30;99.90;;;;;;5074127;28;20516;-70
2023/10/27 00:29:54;;;;;;;1.00;1.00;;;9.20;99.90;;;;;;5075060;28;20047;-70
2023/10/27 00:32:20;;;;;;;0.60;0.60;;;9.20;99.90;;;;;;5074872;28;20043;-70
2023/10/27 00:34:45;;;;;;;0.80;0.80;;;9.30;99.90;;;;;;5074862;28;20106;-70
2023/10/27 00:37:11;;;;;;;0.60;0.60;;;9.30;99.90;;;;;;5074684;28;20040;-70
2023/10/27 00:39:38;;;;;;;0.60;0.60;;;9.30;99.90;;;;;;5074783;28;20538;-70
2023/10/27 00:42:05;;;;;;;0.70;0.70;;;9.30;99.90;;;;;;5074418;28;20472;-70
2023/10/27 00:44:31;;;;;;;0.70;0.70;;;9.20;99.90;;;;;;5074631;28;20123;-70
2023/10/27 00:46:57;;;;;;;0.90;0.90;;;9.20;99.90;;;;;;5074612;28;20072;-70
2023/10/27 00:49:23;;;;;;;0.65;0.65;;;9.20;99.90;;;;;;5074657;28;20032;-70
2023/10/27 00:51:49;;;;;;;3.00;1.33;;;9.30;99.90;;;;;;5074446;28;20086;-70
2023/10/27 00:54:17;;;;;;;0.80;0.80;;;9.30;99.90;;;;;;5074429;28;20105;-70
2023/10/27 00:56:44;;;;;;;0.70;0.70;;;9.20;99.90;;;;;;5074471;28;20072;-70
2023/10/27 00:59:10;;;;;;;0.80;0.80;;;9.20;99.90;;;;;;5074395;28;20456;-70
2023/10/27 01:01:36;;;;;;;0.80;0.80;;;9.20;99.90;;;;;;5074361;28;20094;-70
2023/10/27 01:04:02;;;;;;;0.68;0.68;;;9.20;99.90;;;;;;5074410;28;20083;-70
2023/10/27 01:06:28;;;;;;;0.65;0.65;;;9.20;99.90;;;;;;5073011;28;20115;-70
2023/10/27 01:08:54;;;;;;;2.45;1.00;;;9.20;99.90;;;;;;5073953;28;20045;-70
2023/10/27 01:11:21;;;;;;;1.27;1.17;;;9.20;99.90;;;;;;5074161;28;20372;-70
2023/10/27 01:13:51;;;;;;;2.20;0.90;;;9.30;99.90;;;;;;5074290;28;20465;-70
2023/10/27 01:16:17;;;;;;;0.70;0.70;;;9.20;99.90;;;;;;5074078;28;20125;-70
2023/10/27 01:18:42;;;;;;;0.80;0.80;;;9.30;99.90;;;;;;5073957;28;20094;-70
2023/10/27 01:21:08;;;;;;;0.90;0.90;;;9.20;99.90;;;;;;5073945;28;20090;-70
2023/10/27 01:23:33;;;;;;;0.70;0.70;;;9.70;99.90;;;;;;5073948;28;20044;-70
2023/10/27 01:25:59;;;;;;;1.77;1.65;;;9.20;99.90;;;;;;5074199;28;20032;-70
2023/10/27 01:28:25;;;;;;;0.60;0.60;;;9.20;99.90;;;;;;5073917;28;20478;-70
2023/10/27 01:30:50;;;;;;;0.60;0.60;;;9.40;99.90;;;;;;5073933;28;20145;-70
2023/10/27 01:33:16;;;;;;;0.60;0.60;;;10.00;99.90;;;;;;5073747;28;20036;-70
2023/10/27 01:35:42;;;;;;;3.67;3.40;;;9.50;99.90;;;;;;5073835;28;20086;-70
2023/10/27 01:38:07;;;;;;;0.60;0.60;;;9.30;99.90;;;;;;5073704;28;20574;-70
2023/10/27 01:40:33;;;;;;;0.60;0.60;;;9.30;99.90;;;;;;5073746;28;20040;-70
2023/10/27 01:42:58;;;;;;;0.80;0.80;;;9.30;99.90;;;;;;5073497;28;20036;-70
2023/10/27 01:45:24;;;;;;;0.65;0.65;;;9.50;99.90;;;;;;5073626;28;20040;-70
2023/10/27 01:47:50;;;;;;;0.70;0.70;;;9.30;99.90;;;;;;5073691;28;20037;-70
2023/10/27 01:50:15;;;;;;;0.80;0.80;;;9.30;99.90;;;;;;5073681;28;20354;-70
2023/10/27 01:52:41;;;;;;;0.77;0.77;;;9.30;99.90;;;;;;5073474;28;20090;-70
2023/10/27 01:55:07;;;;;;;1.00;0.90;;;9.30;99.90;;;;;;5072796;28;20043;-70
2023/10/27 01:57:32;;;;;;;2.25;1.58;;;9.40;99.90;;;;;;5073587;28;20063;-70
2023/10/27 01:59:58;;;;;;;2.58;2.00;;;9.40;99.90;;;;;;5073496;28;20460;-70
2023/10/27 02:02:24;;;;;;;1.10;1.05;;;9.40;99.90;;;;;;5073515;28;20090;-70
2023/10/27 02:04:49;;;;;;;0.60;0.60;;;9.40;99.90;;;;;;5073406;28;20051;-70
2023/10/27 02:07:15;;;;;;;0.80;0.80;;;10.00;99.90;;;;;;5073217;28;20112;-70
2023/10/27 02:09:40;;;;;;;0.60;0.60;;;9.40;99.90;;;;;;5073843;28;20132;-70
2023/10/27 02:12:10;;;;;;;0.60;0.60;;;9.40;99.90;;;;;;5073050;28;20044;-70
2023/10/27 02:14:39;;;;;;;0.60;0.60;;;9.40;99.90;;;;;;5073422;28;20043;-70
2023/10/27 02:17:04;;;;;;;0.70;0.70;;;9.40;99.90;;;;;;5073008;28;20529;-70
2023/10/27 02:19:30;;;;;;;1.88;1.63;;;9.50;99.90;;;;;;5073314;28;20041;-70
2023/10/27 02:21:55;;;;;;;0.90;0.90;;;9.90;99.90;;;;;;5075672;28;20040;-70
2023/10/27 02:24:21;;;;;;;0.65;0.65;;;9.40;99.90;;;;;;5077318;28;20044;-70
2023/10/27 02:26:46;;;;;;;0.75;0.75;;;9.40;99.90;;;;;;5077380;28;20040;-70
2023/10/27 02:29:13;;;;;;;0.70;0.70;;;9.40;99.90;;;;;;5077344;28;20047;-69
2023/10/27 02:31:38;;;;;;;0.70;0.70;;;9.40;99.90;;;;;;5077398;28;20048;-70
2023/10/27 02:34:04;;;;;;;0.63;0.63;;;9.40;99.90;;;;;;5077135;28;20063;-69
2023/10/27 02:36:30;;;;;;;0.70;0.70;;;9.40;99.90;;;;;;5077689;28;20499;-70
2023/10/27 02:38:55;;;;;;;0.88;0.88;;;9.40;99.90;;;;;;5077452;28;20500;-70
2023/10/27 02:41:21;;;;;;;0.90;0.90;;;9.30;99.90;;;;;;5077002;28;20040;-70
2023/10/27 02:43:47;;;;;;;0.70;0.70;;;9.40;99.90;;;;;;5076841;28;20040;-70
2023/10/27 02:46:13;;;;;;;0.70;0.70;;;9.40;99.90;;;;;;5077028;28;20072;-70
2023/10/27 02:48:41;;;;;;;1.50;1.40;;;9.40;99.90;;;;;;5076858;28;20044;-70
2023/10/27 02:51:08;;;;;;;1.83;1.73;;;9.40;99.90;;;;;;5076848;28;20105;-70
2023/10/27 02:53:34;;;;;;;1.95;0.90;;;9.40;99.90;;;;;;5075501;28;20040;-70
2023/10/27 02:56:09;;;;;;;0.70;0.70;;;9.40;99.90;;;;;;5077037;28;20126;-70
2023/10/27 02:58:35;;;;;;;0.80;0.80;;;9.40;99.90;;;;;;5076430;28;20484;-70
2023/10/27 03:01:06;;;;;;;0.80;0.80;;;9.40;99.90;;;;;;5076716;28;20040;-70
2023/10/27 03:03:32;;;;;;;0.60;0.60;;;9.40;99.90;;;;;;5076660;28;20078;-70
2023/10/27 03:05:58;;;;;;;0.60;0.60;;;9.40;99.90;;;;;;5076613;28;20072;-70
2023/10/27 03:08:24;;;;;;;0.88;0.88;;;9.70;99.90;;;;;;5076579;28;20052;-70
2023/10/27 03:10:49;;;;;;;0.70;0.70;;;9.40;99.90;;;;;;5076497;28;20155;-70
2023/10/27 03:13:15;;;;;;;0.70;0.70;;;9.40;99.90;;;;;;5076348;28;20036;-70
2023/10/27 03:15:41;;;;;;;0.70;0.70;;;9.40;99.90;;;;;;5076590;28;20131;-70
2023/10/27 03:18:06;;;;;;;0.70;0.70;;;9.40;99.90;;;;;;5076381;28;20051;-70
2023/10/27 03:20:32;;;;;;;0.60;0.60;;;9.40;99.90;;;;;;5076379;28;20037;-70
2023/10/27 03:22:58;;;;;;;0.70;0.70;;;9.40;99.90;;;;;;5075088;28;20076;-70
2023/10/27 03:25:24;;;;;;;0.60;0.60;;;9.40;99.90;;;;;;5076271;28;20094;-70
2023/10/27 03:27:49;;;;;;;0.60;0.60;;;9.40;99.90;;;;;;5076204;28;20040;-70
2023/10/27 03:30:15;;;;;;;0.60;0.60;;;9.40;99.90;;;;;;5076173;28;20376;-70
2023/10/27 03:32:41;;;;;;;1.10;1.10;;;9.40;99.90;;;;;;5075458;28;20044;-70
2023/10/27 03:35:07;;;;;;;0.98;0.98;;;9.40;99.90;;;;;;5076509;28;20487;-70
2023/10/27 03:37:33;;;;;;;0.60;0.60;;;9.40;99.90;;;;;;5076074;28;20124;-70
2023/10/27 03:39:58;;;;;;;1.95;0.90;;;9.40;99.90;;;;;;5076221;28;20113;-70
2023/10/27 03:42:24;;;;;;;0.68;0.68;;;9.40;99.90;;;;;;5075866;28;20072;-70
2023/10/27 03:44:50;;;;;;;0.60;0.60;;;9.30;99.90;;;;;;5075883;28;20044;-70
2023/10/27 03:47:15;;;;;;;0.70;0.70;;;9.30;99.90;;;;;;5075871;28;20029;-69
2023/10/27 03:49:41;;;;;;;0.60;0.60;;;9.40;99.90;;;;;;5076091;28;20047;-70
2023/10/27 03:52:09;;;;;;;0.60;0.60;;;9.40;99.90;;;;;;5075730;28;20058;-70
2023/10/27 03:54:35;;;;;;;0.60;0.60;;;9.30;99.90;;;;;;5075567;28;20045;-70
2023/10/27 03:57:04;;;;;;;0.60;0.60;;;9.50;99.90;;;;;;5075547;28;20067;-70
2023/10/27 03:59:30;;;;;;;0.60;0.60;;;9.40;99.90;;;;;;5075685;28;20036;-70
2023/10/27 04:01:55;;;;;;;0.60;0.60;;;9.30;99.90;;;;;;5075377;28;20123;-70
2023/10/27 04:04:21;;;;;;;0.60;0.60;;;9.30;99.90;;;;;;5075534;28;20037;-70
2023/10/27 04:06:46;;;;;;;4.03;1.23;;;9.30;99.90;;;;;;5075738;28;20075;-70
2023/10/27 04:09:12;;;;;;;0.60;0.60;;;9.30;99.90;;;;;;5075745;28;20052;-70
2023/10/27 04:11:38;;;;;;;0.60;0.60;;;9.30;99.90;;;;;;5075442;28;20088;-70
2023/10/27 04:14:07;;;;;;;1.33;1.23;;;9.90;99.90;;;;;;5075289;28;20068;-70
2023/10/27 04:16:32;;;;;;;0.80;0.80;;;9.30;99.90;;;;;;5075192;28;20051;-70
2023/10/27 04:18:58;;;;;;;0.60;0.60;;;9.30;99.90;;;;;;5075297;28;20049;-70
2023/10/27 04:21:23;;;;;;;1.15;1.05;;;9.30;99.90;;;;;;5075262;28;20036;-70
2023/10/27 04:23:49;;;;;;;0.70;0.70;;;9.30;99.90;;;;;;5075457;28;20062;-70
2023/10/27 04:26:15;;;;;;;0.70;0.70;;;9.50;99.90;;;;;;5075299;28;20122;-70
2023/10/27 04:28:42;;;;;;;0.70;0.70;;;9.30;99.90;;;;;;5075068;28;20097;-70
2023/10/27 04:31:08;;;;;;;0.70;0.70;;;9.30;99.90;;;;;;5073711;28;20045;-70
2023/10/27 04:33:37;;;;;;;1.20;1.10;;;9.60;99.90;;;;;;5074953;28;20076;-70
2023/10/27 04:36:05;;;;;;;0.60;0.60;;;9.20;99.90;;;;;;5074865;28;20047;-70
2023/10/27 04:38:31;;;;;;;1.00;1.00;;;9.20;99.90;;;;;;5074747;28;20486;-70
2023/10/27 04:40:56;;;;;;;0.60;0.60;;;9.20;99.90;;;;;;5074844;28;20040;-70
2023/10/27 04:43:22;;;;;;;0.60;0.60;;;9.20;99.90;;;;;;5073935;28;20044;-70
2023/10/27 04:45:48;;;;;;;0.90;0.90;;;9.20;99.90;;;;;;5073690;28;20041;-70
2023/10/27 04:48:14;;;;;;;0.57;0.57;;;9.20;99.90;;;;;;5074416;28;20032;-70
2023/10/27 04:50:39;;;;;;;1.20;1.10;;;9.20;99.90;;;;;;5074676;28;20036;-70
2023/10/27 04:53:05;;;;;;;1.67;0.70;;;9.20;99.90;;;;;;5074558;28;20568;-70
2023/10/27 04:55:31;;;;;;;0.70;0.70;;;9.20;99.90;;;;;;5074635;28;20081;-70
2023/10/27 04:57:57;;;;;;;0.68;0.68;;;9.20;99.90;;;;;;5074595;28;20123;-70
2023/10/27 05:00:23;;;;;;;0.70;0.70;;;9.20;99.90;;;;;;5074305;28;20471;-70
2023/10/27 05:02:50;;;;;;;0.60;0.60;;;9.60;99.90;;;;;;5074370;28;20089;-70
2023/10/27 05:05:16;;;;;;;0.90;0.90;;;9.10;99.90;;;;;;5074305;28;20084;-70
2023/10/27 05:07:41;;;;;;;1.17;1.08;;;9.10;99.90;;;;;;5072855;28;20083;-70
2023/10/27 05:10:07;;;;;;;1.02;0.93;;;9.10;99.90;;;;;;5074212;28;20123;-70
2023/10/27 05:12:36;;;;;;;1.20;1.10;;;9.10;99.90;;;;;;5073917;28;20072;-69
2023/10/27 05:15:03;;;;;;;1.00;0.90;;;9.10;99.90;;;;;;5074167;28;20044;-70
2023/10/27 05:17:29;;;;;;;0.60;0.60;;;9.10;99.90;;;;;;5074082;28;20048;-70
2023/10/27 05:19:54;;;;;;;1.00;1.00;;;9.10;99.90;;;;;;5073877;28;20464;-70
2023/10/27 05:22:22;;;;;;;0.60;0.60;;;9.70;99.90;;;;;;5074066;28;20123;-70
2023/10/27 05:24:48;;;;;;;0.82;0.82;;;9.10;99.90;;;;;;5073929;28;20044;-70
2023/10/27 05:27:14;;;;;;;0.80;0.80;;;9.10;99.90;;;;;;5073912;28;20173;-70
2023/10/27 05:29:39;;;;;;;1.27;1.23;;;9.20;99.90;;;;;;5073742;28;20131;-69
2023/10/27 05:32:05;;;;;;;1.00;1.00;;;9.10;99.90;;;;;;5074271;28;20044;-70
2023/10/27 05:34:31;;;;;;;1.13;1.08;;;9.10;99.90;;;;;;5074167;28;20472;-70
2023/10/27 05:36:59;;;;;;;0.80;0.80;;;9.20;99.90;;;;;;5074033;28;20040;-70
2023/10/27 05:39:26;;;;;;;0.75;0.75;;;9.10;99.90;;;;;;5073909;28;20045;-70
2023/10/27 05:41:52;;;;;;;;;;;9.70;99.90;;;;;;5072933;28;20407;-70
2023/10/27 05:44:18;;;;;;;0.90;0.90;;;9.60;99.90;;;;;;5073601;28;19924;-70
2023/10/27 05:46:43;;;;;;;1.08;0.93;;;9.10;99.90;;;;;;5074401;28;20040;-70
2023/10/27 05:49:09;;;;;;;1.35;1.25;;;9.10;99.90;;;;;;5074023;28;20496;-70
2023/10/27 05:51:35;;;;;;;0.60;0.60;;;9.10;99.90;;;;;;5073579;28;20045;-70
2023/10/27 05:54:01;;;;;;;1.33;1.23;;;9.10;99.90;;;;;;5073492;28;20048;-70
2023/10/27 05:56:27;;;;;;;0.60;0.60;;;9.30;99.90;;;;;;5073416;28;20040;-70
2023/10/27 05:58:54;;;;;;;0.65;0.65;;;9.80;99.90;;;;;;5073497;28;20047;-70
2023/10/27 06:01:19;;;;;;;0.63;0.63;;;9.10;99.90;;;;;;5073940;28;20044;-70
2023/10/27 06:03:46;;;;;;;0.70;0.70;;;9.00;99.90;;;;;;5073260;28;20040;-70
2023/10/27 06:06:11;;;;;;;0.73;0.73;;;9.00;99.90;;;;;;5073726;28;20127;-70
2023/10/27 06:08:42;;;;;;;0.60;0.60;;;9.00;99.90;;;;;;5071978;28;20088;-70
2023/10/27 06:11:08;;;;;;;0.63;0.63;;;9.00;99.90;;;;;;5073498;28;20037;-69
2023/10/27 06:13:34;;;;;;;1.02;0.95;;;9.00;99.90;;;;;;5072039;28;20137;-70
2023/10/27 06:16:00;;;;;;;0.75;0.75;;;9.00;99.90;;;;;;5073402;28;20071;-70
2023/10/27 06:18:25;;;;;;;1.10;1.08;;;9.20;99.90;;;;;;5073481;28;20044;-70
2023/10/27 06:20:51;;;;;;;0.60;0.60;;;9.00;99.90;;;;;;5073592;28;20476;-70
2023/10/27 06:23:16;;;;;;;3.13;1.25;;;9.00;99.90;;;;;;5072392;28;20043;-70
2023/10/27 06:25:42;;;;;;;0.60;0.60;;;9.00;99.90;;;;;;5073270;28;20133;-70
2023/10/27 06:28:08;;;;;;;0.60;0.60;;;9.70;99.90;;;;;;5073158;28;20052;-70
2023/10/27 06:30:33;;;;;;;0.60;0.60;;;9.10;99.90;;;;;;5072980;28;20039;-70
2023/10/27 06:32:59;;;;;;;0.70;0.70;;;9.20;99.90;;;;;;5073089;28;20341;-70
2023/10/27 06:35:25;;;;;;;1.05;1.05;;;9.00;99.90;;;;;;5073205;28;20059;-70
2023/10/27 06:37:51;;;;;;;1.17;0.60;;;9.70;99.90;;;;;;5073175;28;20048;-70
2023/10/27 06:40:17;;;;;;;0.82;0.80;;;9.00;99.90;;;;;;5073106;28;20040;-70
2023/10/27 06:42:42;;;;;;;0.70;0.70;;;9.00;99.90;;;;;;5073202;28;20116;-70
2023/10/27 06:45:08;;;;;;;0.60;0.60;;;9.00;99.90;;;;;;5073025;28;20496;-70
2023/10/27 06:47:35;;;;;;;0.95;0.95;;;9.10;99.90;;;;;;5073018;28;20051;-70
2023/10/27 06:50:03;;;;;;;0.60;0.60;;;9.50;99.90;;;;;;5071806;28;20369;-70
2023/10/27 06:52:29;;;;;;;1.15;1.05;;;9.10;99.90;;;;;;5072955;28;20033;-70
2023/10/27 06:54:54;;;;;;;0.70;0.70;;;9.00;99.90;;;;;;5073049;28;20056;-70
2023/10/27 06:57:20;;;;;;;0.82;0.82;;;9.10;99.90;;;;;;5072930;28;20048;-70
2023/10/27 06:59:45;;;;;;;0.60;0.60;;;9.10;99.90;;;;;;5072619;28;20064;-70
2023/10/27 07:02:11;;;;;;;1.15;0.70;;;9.10;99.90;;;;;;5072956;28;20494;-70
2023/10/27 07:04:37;;;;;;;0.80;0.80;;;9.10;99.90;;;;;;5072882;28;20036;-70
2023/10/27 07:07:05;;;;;;;1.23;1.13;;;9.10;99.90;;;;;;5074608;28;20310;-70
2023/10/27 07:09:31;;;;;;;1.83;1.73;;;9.10;99.90;;;;;;5075652;28;20052;-70
2023/10/27 07:11:57;;;;;;;0.95;0.95;;;9.30;99.90;;;;;;5076531;28;20120;-70
2023/10/27 07:14:23;;;;;;;1.23;1.13;;;9.60;99.90;;;;;;5076380;28;20132;-70
2023/10/27 07:16:51;;;;;;;1.30;1.20;;;9.40;99.90;;;;;;5076437;28;20044;-70
2023/10/27 07:19:18;;;;;;;6.53;1.88;;;9.10;99.90;;;;;;5076319;28;20040;-70
2023/10/27 07:21:44;;;;;;;0.60;0.60;;;9.10;99.90;;;;;;5076304;28;20463;-70
2023/10/27 07:24:10;;;;;;;0.70;0.70;;;9.10;99.90;;;;;;5076324;28;20085;-70
2023/10/27 07:26:36;;;;;;;0.60;0.60;;;9.30;99.90;;;;;;5076291;28;20372;-70
2023/10/27 07:29:02;;;;;;;0.82;0.82;;;9.10;99.90;;;;;;5076135;28;20040;-70
2023/10/27 07:31:27;;;;;;;0.60;0.60;;;9.20;99.90;;;;;;5076601;28;20055;-70
2023/10/27 07:33:54;;;;;;;0.80;0.80;;;9.20;99.90;;;;;;5076464;28;20452;-70
2023/10/27 07:36:19;;;;;;;0.70;0.70;;;9.20;99.90;;;;;;5076365;28;20120;-70
2023/10/27 07:38:45;;;;;;;0.88;0.88;;;9.40;99.90;;;;;;5076631;28;20044;-70
2023/10/27 07:41:10;;;;;;;0.90;0.90;;;9.20;99.90;;;;;;5076121;28;20132;-70
2023/10/27 07:43:37;;;;;;;0.70;0.70;;;9.20;99.90;;;;;;5075683;28;20431;-70
2023/10/27 07:46:03;;;;;;;1.42;1.33;;;9.20;99.90;;;;;;5074979;28;20116;-70
2023/10/27 07:48:29;;;;;;;1.77;1.67;;;9.20;99.90;;;;;;5075864;28;20048;-70
2023/10/27 07:50:57;;;;;;;1.65;1.05;;;9.20;99.90;;;;;;5075844;28;20044;-70
2023/10/27 07:53:26;;;;;;;0.70;0.70;;;9.20;99.90;;;;;;5075625;28;20036;-70
2023/10/27 07:55:53;;;;;;;0.68;0.68;;;9.80;99.90;;;;;;5075724;28;20102;-70
2023/10/27 07:58:22;;;;;;;0.82;0.70;;;9.30;99.90;;;;;;5075704;28;20045;-70
2023/10/27 08:00:49;;;;;;;0.63;0.63;;;9.30;99.90;;;;;;5075656;28;20388;-70
2023/10/27 08:03:14;;;;;;;0.60;0.60;;;9.30;99.90;;;;;;5075615;28;20036;-70
2023/10/27 08:05:40;;;;;;;0.70;0.70;;;9.40;99.90;;;;;;5075781;28;20089;-70
2023/10/27 08:08:06;;;;;;;1.58;1.48;;;9.40;99.90;;;;;;5075454;28;20052;-70
2023/10/27 08:10:37;;;;;;;0.77;0.70;;;9.40;99.90;;;;;;5075437;28;20051;-70
2023/10/27 08:13:02;;;;;;;0.60;0.60;;;9.40;99.90;;;;;;5075182;28;20076;-70
2023/10/27 08:15:28;;;;;;;0.65;0.65;;;9.40;99.90;;;;;;5074086;28;20043;-70
2023/10/27 08:17:53;;;;;;;0.70;0.70;;;9.40;99.90;;;;;;5075242;28;20098;-70
2023/10/27 08:20:19;;;;;;;0.70;0.70;;;9.40;99.90;;;;;;5075291;28;20529;-70
2023/10/27 08:22:45;;;;;;;0.77;0.77;;;9.40;99.90;;;;;;5075254;28;20040;-70
2023/10/27 08:25:12;;;;;;;0.70;0.70;;;9.40;99.90;;;;;;5075283;28;20127;-70
2023/10/27 08:27:37;;;;;;;0.70;0.70;;;9.50;99.90;;;;;;5075563;28;20055;-70
2023/10/27 08:30:03;;;;;;;1.55;1.25;;;9.50;99.90;;;;;;5075149;28;20282;-69
2023/10/27 08:32:29;;;;;;;1.50;1.40;;;9.40;99.90;;;;;;5075053;28;20036;-70
2023/10/27 08:34:55;;;;;;;0.95;0.93;;;10.20;99.90;;;;;;5074768;28;20028;-70
2023/10/27 08:37:21;;;;;;;0.70;0.70;;;9.50;99.90;;;;;;5075205;28;20082;-70
2023/10/27 08:39:46;;;;;;;0.90;0.88;;;9.50;99.90;;;;;;5074913;28;20478;-70
2023/10/27 08:42:12;;;;;;;0.98;0.98;;;9.50;99.90;;;;;;5074579;28;20037;-70
2023/10/27 08:44:43;;;;;;;0.82;0.82;;;9.50;99.90;;;;;;5075233;28;20068;-70
2023/10/27 08:47:09;;;;;;;0.60;0.60;;;9.50;99.90;;;;;;5074680;28;20033;-69
2023/10/27 08:49:35;;;;;;;0.70;0.70;;;9.80;99.90;;;;;;5074689;28;20040;-70
2023/10/27 08:52:02;;;;;;;0.70;0.70;;;9.50;99.90;;;;;;5074629;28;20044;-70
2023/10/27 08:54:30;;;;;;;0.90;0.90;;;9.60;99.90;;;;;;5074459;28;20036;-70
2023/10/27 08:56:55;;;;;;;2.78;0.85;;;10.10;99.90;;;;;;5074518;28;20081;-70
2023/10/27 08:59:21;;;;;;;1.30;1.20;;;9.50;99.90;;;;;;5074552;28;20125;-69
2023/10/27 09:01:47;;;;;;;1.52;1.42;;;9.60;99.90;;;;;;5074546;28;20040;-70
2023/10/27 09:04:14;;;;;;;0.70;0.70;;;9.60;99.90;;;;;;5074441;28;20033;-70
2023/10/27 09:06:42;;;;;;;0.68;0.68;;;9.60;99.90;;;;;;5074371;28;20040;-70
2023/10/27 09:09:10;;;;;;;0.85;0.85;;;9.70;99.90;;;;;;5073899;28;20048;-70
2023/10/27 09:11:44;;;;;;;0.70;0.70;;;9.60;99.90;;;;;;5073162;28;20044;-70
2023/10/27 09:14:32;;;;;;;0.70;0.70;;;9.60;99.90;;;;;;5074523;28;20079;-70
2023/10/27 09:17:09;;;;;;;0.60;0.60;;;9.70;99.90;;;;;;5074280;28;20358;-70
2023/10/27 09:19:37;;;;;;;1.67;1.58;;;9.70;99.90;;;;;;5073934;28;20051;-70
2023/10/27 09:22:13;;;;;;;2.10;2.00;;;9.70;99.90;;;;;;5074329;28;20376;-70
2023/10/27 09:24:38;;;;;;;0.75;0.75;;;9.70;99.90;;;;;;5074402;28;20379;-70
2023/10/27 09:27:04;;;;;;;0.65;0.65;;;10.30;99.90;;;;;;5073877;28;20120;-70
2023/10/27 09:29:40;;;;;;;0.65;0.65;;;9.70;99.90;;;;;;5073429;28;20492;-70
2023/10/27 09:32:23;;;;;;;0.80;0.80;;;9.70;99.90;;;;;;5073834;28;20040;-70
2023/10/27 09:35:09;;;;;;;0.95;0.95;;;9.80;99.90;;;;;;5074251;28;20040;-70
2023/10/27 09:37:37;;;;;;;0.70;0.70;;;9.70;99.90;;;;;;5073826;28;20048;-70
2023/10/27 09:40:06;;;;;;;0.73;0.73;;;9.80;99.90;;;;;;5073743;28;20048;-70
2023/10/27 09:42:35;;;;;;;0.80;0.80;;;9.70;99.90;;;;;;5073869;28;20040;-70
2023/10/27 09:45:13;;;;;;;0.60;0.60;;;10.00;99.90;;;;;;5074275;28;20108;-70
2023/10/27 09:47:42;;;;;;;0.60;0.60;;;9.80;99.90;;;;;;5074160;28;20037;-70
2023/10/27 09:50:15;;;;;;;0.80;0.80;;;9.80;99.90;;;;;;5073679;28;20460;-70
2023/10/27 09:52:44;;;;;;;0.60;0.60;;;9.80;99.90;;;;;;5073830;28;20048;-70
2023/10/27 09:55:19;;;;;;;0.80;0.80;;;9.90;99.90;;;;;;5073528;28;20173;-70
2023/10/27 09:57:45;;;;;;;0.70;0.70;;;9.90;99.90;;;;;;5073561;28;20044;-70
2023/10/27 10:00:23;;;;;;;1.60;1.50;;;9.90;99.90;;;;;;5073869;28;20072;-70
2023/10/27 10:02:49;;;;;;;0.60;0.60;;;9.90;99.90;;;;;;5072296;28;20388;-69
2023/10/27 10:05:15;;;;;;;0.70;0.70;;;9.90;99.90;;;;;;5073564;28;20070;-69
2023/10/27 10:07:44;;;;;;;0.70;0.70;;;9.80;99.90;;;;;;5073405;28;20143;-70
2023/10/27 10:10:16;;;;;;;0.75;0.75;;;9.90;99.90;;;;;;5073420;28;20127;-70
2023/10/27 10:13:09;;;;;;;0.50;0.50;;;9.90;99.90;;;;;;5073421;28;20098;-70
2023/10/27 10:15:45;;;;;;;0.60;0.60;;;10.10;99.90;;;;;;5073758;28;20041;-69
2023/10/27 10:18:20;;;;;;;0.98;0.93;;;9.90;99.90;;;;;;5072289;28;20047;-70
2023/10/27 10:20:58;;;;;;;1.42;1.33;;;9.90;99.90;;;;;;5073397;28;20476;-70
2023/10/27 10:23:51;;;;;;;0.60;0.60;;;10.00;99.90;;;;;;5073635;28;20086;-70
2023/10/27 10:26:17;;;;;;;0.75;0.75;;;10.00;99.90;;;;;;5056795;28;20049;-70
2023/10/27 10:28:45;;;;;;;0.65;0.65;;;10.00;99.90;;;;;;5073258;28;20032;-69
2023/10/27 10:31:11;;;;;;;0.88;0.80;;;10.00;99.90;;;;;;5073355;28;20088;-70
2023/10/27 10:33:44;;;;;;;1.25;1.15;;;10.10;99.90;;;;;;5073266;28;20455;-70
2023/10/27 10:36:19;;;;;;;0.85;0.85;;;10.70;99.90;;;;;;5073440;28;20101;-70
2023/10/27 10:38:55;;;;;;;0.60;0.60;;;10.10;99.90;;;;;;5073279;28;20051;-70
2023/10/27 10:41:42;;;;;;;0.60;0.60;;;10.10;99.90;;;;;;5073954;28;20486;-70
2023/10/27 10:44:12;;;;;;;0.80;0.80;;;10.10;99.90;;;;;;5069595;28;20051;-70
2023/10/27 10:46:37;;;;;;;0.60;0.60;;;10.10;99.90;;;;;;5077096;28;20123;-70
2023/10/27 10:49:03;;;;;;;1.50;1.15;;;10.10;99.90;;;;;;5077336;28;20086;-70
2023/10/27 10:51:38;;;;;;;0.73;0.73;;;10.20;99.90;;;;;;5077014;28;20116;-70
2023/10/27 10:54:12;;;;;;;1.75;0.70;;;10.20;99.90;;;;;;5076858;28;20036;-70
2023/10/27 10:56:37;;;;;;;0.75;0.75;;;10.20;99.90;;;;;;5077183;28;20098;-69
2023/10/27 10:59:03;;;;;;;0.60;0.60;;;10.20;99.90;;;;;;5076804;28;20040;-70
2023/10/27 11:01:29;;;;;;;0.60;0.60;;;10.20;99.90;;;;;;5076808;28;20039;-70
2023/10/27 11:03:57;;;;;;;0.70;0.70;;;10.30;99.90;;;;;;5076702;28;20032;-70
2023/10/27 11:06:28;;;;;;;0.60;0.60;;;10.30;99.90;;;;;;5076620;28;20170;-70
2023/10/27 11:08:54;;;;;;;1.15;1.05;;;10.90;99.90;;;;;;5077471;28;20070;-70
2023/10/27 11:11:20;;;;;;;2.28;1.95;;;10.30;99.90;;;;;;5076595;28;20044;-70
2023/10/27 11:13:49;;;;;;;0.60;0.60;;;10.30;99.90;;;;;;5075673;28;20463;-70
2023/10/27 11:16:22;;;;;;;0.90;0.90;;;10.40;99.90;;;;;;5076486;28;20163;-70
2023/10/27 11:19:05;;;;;;;0.55;0.55;;;10.40;99.90;;;;;;5076397;28;20047;-70
2023/10/27 11:21:34;;;;;;;0.57;0.57;;;10.40;99.90;;;;;;5076451;28;20041;-70
2023/10/27 11:24:06;;;;;;;1.05;1.00;;;10.40;99.90;;;;;;5076338;28;20032;-70
2023/10/27 11:26:38;;;;;;;0.55;0.55;;;10.40;99.90;;;;;;5076348;28;20033;-70
2023/10/27 11:29:08;;;;;;;1.02;0.95;;;10.40;99.90;;;;;;5076326;28;20040;-70
2023/10/27 11:31:40;;;;;;;1.00;0.90;;;10.40;99.90;;;;;;5076114;28;20082;-70
2023/10/27 11:34:14;;;;;;;0.70;0.70;;;10.40;99.90;;;;;;5076368;28;20404;-70
2023/10/27 11:36:42;;;;;;;1.48;1.38;;;10.40;99.90;;;;;;5076020;28;20040;-70
2023/10/27 11:39:15;;;;;;;0.80;0.80;;;10.40;99.90;;;;;;5076143;28;20373;-69
2023/10/27 11:41:48;;;;;;;0.80;0.80;;;10.50;99.90;;;;;;5076018;28;20048;-69
2023/10/27 11:44:14;;;;;;;0.80;0.80;;;10.50;99.90;;;;;;5076698;28;20095;-70
2023/10/27 11:46:47;;;;;;;0.60;0.60;;;10.50;99.90;;;;;;5075933;28;20461;-70
2023/10/27 11:49:13;;;;;;;0.68;0.68;;;11.70;99.90;;;;;;5076139;28;20037;-70
2023/10/27 11:51:41;;;;;;;0.65;0.65;;;10.50;99.90;;;;;;5075457;28;20097;-70
2023/10/27 11:54:10;;;;;;;1.02;0.80;;;10.50;99.90;;;;;;5075616;28;20120;-70
2023/10/27 11:56:35;;;;;;;0.60;0.60;;;10.50;99.90;;;;;;5075713;28;20043;-69
2023/10/27 11:59:01;;;;;;;1.38;1.27;;;10.60;99.90;;;;;;5075814;28;20036;-70
2023/10/27 12:01:26;;;;;;;0.60;0.60;;;10.50;99.90;;;;;;5076048;28;20419;-70
2023/10/27 12:03:52;;;;;;;0.80;0.80;;;10.60;99.90;;;;;;5075772;28;20037;-70
2023/10/27 12:06:18;;;;;;;0.93;0.93;;;10.50;99.90;;;;;;5075706;28;20044;-70
2023/10/27 12:08:43;;;;;;;1.42;1.33;;;10.70;99.90;;;;;;5075558;28;20048;-69
2023/10/27 12:11:09;;;;;;;0.60;0.60;;;10.50;99.90;;;;;;5075574;28;20127;-70
2023/10/27 12:13:34;;;;;;;0.95;0.95;;;10.50;99.90;;;;;;5075453;28;20456;-70
2023/10/27 12:16:01;;;;;;;0.70;0.70;;;10.40;99.90;;;;;;5075500;28;20051;-70
2023/10/27 12:18:27;;;;;;;0.70;0.70;;;10.40;99.90;;;;;;5075380;28;20041;-70
2023/10/27 12:20:52;;;;;;;0.87;0.87;;;10.60;99.90;;;;;;5075440;28;20071;-70
2023/10/27 12:23:18;;;;;;;0.63;0.63;;;10.40;99.90;;;;;;5075113;28;20460;-70
2023/10/27 12:25:44;;;;;;;0.70;0.60;;;10.40;99.90;;;;;;5075190;28;20040;-70
2023/10/27 12:28:10;;;;;;;0.75;0.75;;;10.50;99.90;;;;;;5075616;28;20146;-70
2023/10/27 12:30:36;;;;;;;0.85;0.85;;;10.50;99.90;;;;;;5073977;28;20369;-70
2023/10/27 12:33:05;;;;;;;0.70;0.70;;;10.50;99.90;;;;;;5074997;28;20047;-70
2023/10/27 12:35:31;;;;;;;0.85;0.85;;;11.10;99.90;;;;;;5075112;28;20093;-70
2023/10/27 12:37:57;;;;;;;0.73;0.68;;;10.40;99.90;;;;;;5075118;28;20114;-70
2023/10/27 12:40:24;;;;;;;0.60;0.60;;;10.40;99.90;;;;;;5074831;28;20039;-70
2023/10/27 12:42:50;;;;;;;0.63;0.63;;;10.40;99.90;;;;;;5074915;28;20099;-70
2023/10/27 12:45:16;;;;;;;0.80;0.80;;;10.40;99.90;;;;;;5074806;28;20107;-70
2023/10/27 12:47:47;;;;;;;0.60;0.60;;;10.40;99.90;;;;;;5074554;28;20076;-70
2023/10/27 12:50:13;;;;;;;2.70;2.08;;;10.40;99.90;;;;;;5074654;28;20033;-70
2023/10/27 12:52:40;;;;;;;0.50;0.50;;;10.40;99.90;;;;;;5074652;28;20114;-70
2023/10/27 12:55:07;;;;;;;0.60;0.60;;;9.50;99.90;;;;;;5074437;28;20036;-70